PWSweather.com
Personal Weather Stations
Station Observations
RW002
Arlington, VA 22207

Arlington, VA 22207

Lat: 38.8955, Lon: -77.1443

Elevation: 390

Station Type: Davis Vantage Pro II

jp_angelone@msn.com

High Low Average
Temperature 52.6°F11.4°C 39.1°F3.9°C 48.6°F9.2°C
Dew Point 49.7°F9.8°C 29.1°F-1.6°C 39.5°F4.2°C
Winds 12.0 mph 19.3 kmh Calm Calm 1.0 mph WSW1.6 kmh WSW
Wind Gusts 18.0 mph29.0 kmh -- 5.0 mph8.0 kmh
Humidity 92% 55% 71%
Pressure 30.06 in1017.9 mb 29.78 in1008.5 mb -
Precipitation 0.16 in4.1 mm - -
Hour Temp Dew Point Humidity Winds Wind Gusts Pressure Precip Precip Rate Daily Precip Total
12:01 AM 50.3°F10.2°C 39.4°F4.1°C 66% 3.0 mph S4.8 kmh S 7.0 mph11.3 kmh 29.97 in1014.9 mb 0.00 in0.0 mm 0.00 in0.0 mm 0.00 in0.0 mm
12:06 AM 50.3°F10.2°C 39.0°F3.9°C 65% 1.0 mph S1.6 kmh S 7.0 mph11.3 kmh 29.96 in1014.6 mb 0.00 in0.0 mm 0.00 in0.0 mm 0.00 in0.0 mm
12:11 AM 50.4°F10.2°C 39.1°F3.9°C 65% 1.0 mph S1.6 kmh S 9.0 mph14.5 kmh 29.96 in1014.6 mb 0.00 in0.0 mm 0.00 in0.0 mm 0.00 in0.0 mm
12:16 AM 50.4°F10.2°C 39.1°F3.9°C 65% Calm Calm 9.0 mph14.5 kmh 29.96 in1014.6 mb 0.00 in0.0 mm 0.00 in0.0 mm 0.00 in0.0 mm
12:21 AM 50.4°F10.2°C 39.1°F3.9°C 65% Calm Calm 9.0 mph14.5 kmh 29.96 in1014.6 mb 0.00 in0.0 mm 0.00 in0.0 mm 0.00 in0.0 mm
12:26 AM 50.4°F10.2°C 39.1°F3.9°C 65% Calm Calm 6.0 mph9.7 kmh 29.96 in1014.6 mb 0.00 in0.0 mm 0.00 in0.0 mm 0.00 in0.0 mm
12:31 AM 50.4°F10.2°C 39.1°F3.9°C 65% Calm Calm 8.0 mph12.9 kmh 29.95 in1014.2 mb 0.00 in0.0 mm 0.00 in0.0 mm 0.00 in0.0 mm
12:36 AM 50.4°F10.2°C 39.1°F3.9°C 65% 1.0 mph S1.6 kmh S 9.0 mph14.5 kmh 29.95 in1014.2 mb 0.00 in0.0 mm 0.00 in0.0 mm 0.00 in0.0 mm
12:41 AM 50.4°F10.2°C 39.1°F3.9°C 65% 1.0 mph S1.6 kmh S 2.0 mph3.2 kmh 29.95 in1014.2 mb 0.00 in0.0 mm 0.00 in0.0 mm 0.00 in0.0 mm
12:46 AM 50.3°F10.2°C 39.4°F4.1°C 66% Calm Calm 6.0 mph9.7 kmh 29.95 in1014.2 mb 0.00 in0.0 mm 0.00 in0.0 mm 0.00 in0.0 mm
12:51 AM 50.3°F10.2°C 39.4°F4.1°C 66% 1.0 mph S1.6 kmh S 7.0 mph11.3 kmh 29.95 in1014.2 mb 0.00 in0.0 mm 0.00 in0.0 mm 0.00 in0.0 mm
12:56 AM 50.1°F10.1°C 39.2°F4.0°C 66% Calm Calm 7.0 mph11.3 kmh 29.94 in1013.9 mb 0.00 in0.0 mm 0.00 in0.0 mm 0.00 in0.0 mm
01:01 AM 50.0°F10.0°C 39.1°F3.9°C 66% 2.0 mph S3.2 kmh S 9.0 mph14.5 kmh 29.94 in1013.9 mb 0.00 in0.0 mm 0.00 in0.0 mm 0.00 in0.0 mm
01:06 AM 49.8°F9.9°C 39.3°F4.1°C 67% 7.0 mph S11.3 kmh S 7.0 mph11.3 kmh 29.93 in1013.5 mb 0.00 in0.0 mm 0.00 in0.0 mm 0.00 in0.0 mm
01:11 AM 49.7°F9.8°C 39.2°F4.0°C 67% Calm Calm 7.0 mph11.3 kmh 29.93 in1013.5 mb 0.00 in0.0 mm 0.00 in0.0 mm 0.00 in0.0 mm
01:16 AM 49.6°F9.8°C 39.1°F3.9°C 67% Calm Calm 7.0 mph11.3 kmh 29.93 in1013.5 mb 0.00 in0.0 mm 0.00 in0.0 mm 0.00 in0.0 mm
01:21 AM 49.5°F9.7°C 39.4°F4.1°C 68% Calm Calm 7.0 mph11.3 kmh 29.93 in1013.5 mb 0.00 in0.0 mm 0.00 in0.0 mm 0.00 in0.0 mm
01:26 AM 49.4°F9.7°C 39.3°F4.1°C 68% Calm Calm 6.0 mph9.7 kmh 29.93 in1013.5 mb 0.00 in0.0 mm 0.00 in0.0 mm 0.00 in0.0 mm
01:31 AM 49.2°F9.6°C 39.1°F3.9°C 68% 1.0 mph S1.6 kmh S 2.0 mph3.2 kmh 29.93 in1013.5 mb 0.00 in0.0 mm 0.00 in0.0 mm 0.00 in0.0 mm
01:36 AM 49.1°F9.5°C 39.4°F4.1°C 69% Calm Calm 2.0 mph3.2 kmh 29.93 in1013.5 mb 0.00 in0.0 mm 0.00 in0.0 mm 0.00 in0.0 mm
01:41 AM 49.0°F9.4°C 39.3°F4.1°C 69% Calm Calm 3.0 mph4.8 kmh 29.93 in1013.5 mb 0.00 in0.0 mm 0.00 in0.0 mm 0.00 in0.0 mm
01:46 AM 48.9°F9.4°C 39.2°F4.0°C 69% Calm Calm 3.0 mph4.8 kmh 29.93 in1013.5 mb 0.00 in0.0 mm 0.00 in0.0 mm 0.00 in0.0 mm
01:51 AM 48.7°F9.3°C 39.4°F4.1°C 70% Calm Calm 6.0 mph9.7 kmh 29.93 in1013.5 mb 0.00 in0.0 mm 0.00 in0.0 mm 0.00 in0.0 mm
01:56 AM 48.7°F9.3°C 39.4°F4.1°C 70% Calm Calm 6.0 mph9.7 kmh 29.93 in1013.5 mb 0.00 in0.0 mm 0.00 in0.0 mm 0.00 in0.0 mm
02:01 AM 48.6°F9.2°C 39.3°F4.1°C 70% 1.0 mph S1.6 kmh S 3.0 mph4.8 kmh 29.93 in1013.5 mb 0.00 in0.0 mm 0.00 in0.0 mm 0.00 in0.0 mm
02:06 AM 48.6°F9.2°C 39.3°F4.1°C 70% Calm Calm -- 29.93 in1013.5 mb 0.00 in0.0 mm 0.00 in0.0 mm 0.00 in0.0 mm
02:11 AM 48.5°F9.2°C 39.5°F4.2°C 71% Calm Calm -- 29.93 in1013.5 mb 0.00 in0.0 mm 0.00 in0.0 mm 0.00 in0.0 mm
02:16 AM 48.6°F9.2°C 39.6°F4.2°C 71% Calm Calm -- 29.93 in1013.5 mb 0.00 in0.0 mm 0.00 in0.0 mm 0.00 in0.0 mm
02:21 AM 48.6°F9.2°C 39.6°F4.2°C 71% Calm Calm 2.0 mph3.2 kmh 29.92 in1013.2 mb 0.00 in0.0 mm 0.00 in0.0 mm 0.00 in0.0 mm
02:26 AM 48.7°F9.3°C 39.7°F4.3°C 71% Calm Calm -- 29.92 in1013.2 mb 0.00 in0.0 mm 0.00 in0.0 mm 0.00 in0.0 mm
02:31 AM 48.7°F9.3°C 39.7°F4.3°C 71% Calm Calm 2.0 mph3.2 kmh 29.92 in1013.2 mb 0.00 in0.0 mm 0.00 in0.0 mm 0.00 in0.0 mm
02:36 AM 48.7°F9.3°C 39.7°F4.3°C 71% 1.0 mph S1.6 kmh S 2.0 mph3.2 kmh 29.92 in1013.2 mb 0.00 in0.0 mm 0.00 in0.0 mm 0.00 in0.0 mm
02:41 AM 48.8°F9.3°C 39.8°F4.3°C 71% Calm Calm 2.0 mph3.2 kmh 29.91 in1012.9 mb 0.00 in0.0 mm 0.00 in0.0 mm 0.00 in0.0 mm
02:46 AM 48.8°F9.3°C 39.8°F4.3°C 71% 1.0 mph S1.6 kmh S 3.0 mph4.8 kmh 29.91 in1012.9 mb 0.00 in0.0 mm 0.00 in0.0 mm 0.00 in0.0 mm
02:51 AM 48.8°F9.3°C 39.8°F4.3°C 71% Calm Calm 2.0 mph3.2 kmh 29.91 in1012.9 mb 0.00 in0.0 mm 0.00 in0.0 mm 0.00 in0.0 mm
02:56 AM 48.9°F9.4°C 39.9°F4.4°C 71% Calm Calm 7.0 mph11.3 kmh 29.90 in1012.5 mb 0.00 in0.0 mm 0.00 in0.0 mm 0.00 in0.0 mm
03:01 AM 49.0°F9.4°C 39.6°F4.2°C 70% Calm Calm 7.0 mph11.3 kmh 29.90 in1012.5 mb 0.00 in0.0 mm 0.00 in0.0 mm 0.00 in0.0 mm
03:06 AM 49.0°F9.4°C 39.6°F4.2°C 70% Calm Calm -- 29.90 in1012.5 mb 0.00 in0.0 mm 0.00 in0.0 mm 0.00 in0.0 mm
03:11 AM 49.1°F9.5°C 39.7°F4.3°C 70% Calm Calm 3.0 mph4.8 kmh 29.90 in1012.5 mb 0.00 in0.0 mm 0.00 in0.0 mm 0.00 in0.0 mm
03:16 AM 49.1°F9.5°C 39.7°F4.3°C 70% Calm Calm -- 29.91 in1012.9 mb 0.00 in0.0 mm 0.00 in0.0 mm 0.00 in0.0 mm
03:21 AM 49.0°F9.4°C 40.0°F4.4°C 71% Calm Calm 3.0 mph4.8 kmh 29.90 in1012.5 mb 0.00 in0.0 mm 0.00 in0.0 mm 0.00 in0.0 mm
03:26 AM 49.0°F9.4°C 40.0°F4.4°C 71% Calm Calm 1.0 mph1.6 kmh 29.90 in1012.5 mb 0.00 in0.0 mm 0.00 in0.0 mm 0.00 in0.0 mm
03:31 AM 48.8°F9.3°C 39.8°F4.3°C 71% Calm Calm 1.0 mph1.6 kmh 29.90 in1012.5 mb 0.00 in0.0 mm 0.00 in0.0 mm 0.00 in0.0 mm
03:36 AM 48.8°F9.3°C 39.8°F4.3°C 71% Calm Calm 5.0 mph8.0 kmh 29.90 in1012.5 mb 0.00 in0.0 mm 0.00 in0.0 mm 0.00 in0.0 mm
03:41 AM 48.9°F9.4°C 39.9°F4.4°C 71% 1.0 mph S1.6 kmh S 5.0 mph8.0 kmh 29.89 in1012.2 mb 0.00 in0.0 mm 0.00 in0.0 mm 0.00 in0.0 mm
03:46 AM 48.9°F9.4°C 39.9°F4.4°C 71% Calm Calm 7.0 mph11.3 kmh 29.88 in1011.9 mb 0.00 in0.0 mm 0.00 in0.0 mm 0.00 in0.0 mm
03:51 AM 48.8°F9.3°C 39.8°F4.3°C 71% 2.0 mph S3.2 kmh S 7.0 mph11.3 kmh 29.88 in1011.9 mb 0.00 in0.0 mm 0.00 in0.0 mm 0.00 in0.0 mm
03:56 AM 48.9°F9.4°C 39.9°F4.4°C 71% Calm Calm 5.0 mph8.0 kmh 29.88 in1011.9 mb 0.00 in0.0 mm 0.00 in0.0 mm 0.00 in0.0 mm
04:01 AM 48.8°F9.3°C 40.2°F4.6°C 72% Calm Calm 3.0 mph4.8 kmh 29.89 in1012.2 mb 0.00 in0.0 mm 0.00 in0.0 mm 0.00 in0.0 mm
04:06 AM 48.7°F9.3°C 40.1°F4.5°C 72% Calm Calm 2.0 mph3.2 kmh 29.88 in1011.9 mb 0.00 in0.0 mm 0.00 in0.0 mm 0.00 in0.0 mm
04:11 AM 48.7°F9.3°C 40.1°F4.5°C 72% Calm Calm 3.0 mph4.8 kmh 29.87 in1011.5 mb 0.00 in0.0 mm 0.00 in0.0 mm 0.00 in0.0 mm
04:16 AM 48.6°F9.2°C 40.0°F4.4°C 72% Calm Calm 4.0 mph6.4 kmh 29.87 in1011.5 mb 0.00 in0.0 mm 0.00 in0.0 mm 0.00 in0.0 mm
04:21 AM 48.7°F9.3°C 40.1°F4.5°C 72% Calm Calm 1.0 mph1.6 kmh 29.87 in1011.5 mb 0.00 in0.0 mm 0.00 in0.0 mm 0.00 in0.0 mm
04:26 AM 48.6°F9.2°C 40.3°F4.6°C 73% 2.0 mph S3.2 kmh S 2.0 mph3.2 kmh 29.88 in1011.9 mb 0.00 in0.0 mm 0.00 in0.0 mm 0.00 in0.0 mm
04:31 AM 48.6°F9.2°C 40.3°F4.6°C 73% Calm Calm 2.0 mph3.2 kmh 29.87 in1011.5 mb 0.00 in0.0 mm 0.00 in0.0 mm 0.00 in0.0 mm
04:36 AM 48.6°F9.2°C 40.3°F4.6°C 73% Calm Calm 1.0 mph1.6 kmh 29.87 in1011.5 mb 0.00 in0.0 mm 0.00 in0.0 mm 0.00 in0.0 mm
04:41 AM 48.6°F9.2°C 40.3°F4.6°C 73% Calm Calm 2.0 mph3.2 kmh 29.86 in1011.2 mb 0.00 in0.0 mm 0.00 in0.0 mm 0.00 in0.0 mm
04:46 AM 48.5°F9.2°C 40.2°F4.6°C 73% Calm Calm 2.0 mph3.2 kmh 29.87 in1011.5 mb 0.00 in0.0 mm 0.00 in0.0 mm 0.00 in0.0 mm
04:51 AM 48.5°F9.2°C 40.2°F4.6°C 73% Calm Calm 1.0 mph1.6 kmh 29.87 in1011.5 mb 0.00 in0.0 mm 0.00 in0.0 mm 0.00 in0.0 mm
04:56 AM 48.4°F9.1°C 40.5°F4.7°C 74% Calm Calm 2.0 mph3.2 kmh 29.86 in1011.2 mb 0.00 in0.0 mm 0.00 in0.0 mm 0.00 in0.0 mm
05:01 AM 48.3°F9.1°C 40.4°F4.7°C 74% 2.0 mph S3.2 kmh S 4.0 mph6.4 kmh 29.87 in1011.5 mb 0.00 in0.0 mm 0.00 in0.0 mm 0.00 in0.0 mm
05:06 AM 48.3°F9.1°C 40.4°F4.7°C 74% Calm Calm 3.0 mph4.8 kmh 29.87 in1011.5 mb 0.00 in0.0 mm 0.00 in0.0 mm 0.00 in0.0 mm
05:11 AM 48.3°F9.1°C 40.4°F4.7°C 74% Calm Calm 1.0 mph1.6 kmh 29.87 in1011.5 mb 0.00 in0.0 mm 0.00 in0.0 mm 0.00 in0.0 mm
05:16 AM 48.3°F9.1°C 40.4°F4.7°C 74% Calm Calm 3.0 mph4.8 kmh 29.86 in1011.2 mb 0.00 in0.0 mm 0.00 in0.0 mm 0.00 in0.0 mm
05:21 AM 48.5°F9.2°C 40.6°F4.8°C 74% 1.0 mph S1.6 kmh S 5.0 mph8.0 kmh 29.85 in1010.8 mb 0.00 in0.0 mm 0.00 in0.0 mm 0.00 in0.0 mm
05:26 AM 48.5°F9.2°C 40.6°F4.8°C 74% Calm Calm -- 29.86 in1011.2 mb 0.00 in0.0 mm 0.00 in0.0 mm 0.00 in0.0 mm
05:31 AM 48.5°F9.2°C 40.6°F4.8°C 74% Calm Calm 1.0 mph1.6 kmh 29.86 in1011.2 mb 0.00 in0.0 mm 0.00 in0.0 mm 0.00 in0.0 mm
05:36 AM 48.5°F9.2°C 40.6°F4.8°C 74% Calm Calm 1.0 mph1.6 kmh 29.86 in1011.2 mb 0.00 in0.0 mm 0.00 in0.0 mm 0.00 in0.0 mm
05:41 AM 48.5°F9.2°C 40.6°F4.8°C 74% Calm Calm 3.0 mph4.8 kmh 29.86 in1011.2 mb 0.00 in0.0 mm 0.00 in0.0 mm 0.00 in0.0 mm
05:46 AM 48.5°F9.2°C 40.6°F4.8°C 74% 1.0 mph S1.6 kmh S 2.0 mph3.2 kmh 29.87 in1011.5 mb 0.00 in0.0 mm 0.00 in0.0 mm 0.00 in0.0 mm
05:51 AM 48.6°F9.2°C 40.7°F4.8°C 74% Calm Calm 2.0 mph3.2 kmh 29.86 in1011.2 mb 0.00 in0.0 mm 0.00 in0.0 mm 0.00 in0.0 mm
05:56 AM 48.6°F9.2°C 40.7°F4.8°C 74% Calm Calm 4.0 mph6.4 kmh 29.85 in1010.8 mb 0.00 in0.0 mm 0.00 in0.0 mm 0.00 in0.0 mm
06:01 AM 48.6°F9.2°C 40.7°F4.8°C 74% Calm Calm 2.0 mph3.2 kmh 29.86 in1011.2 mb 0.00 in0.0 mm 0.00 in0.0 mm 0.00 in0.0 mm
06:06 AM 48.6°F9.2°C 40.7°F4.8°C 74% Calm Calm -- 29.86 in1011.2 mb 0.00 in0.0 mm 0.00 in0.0 mm 0.00 in0.0 mm
06:11 AM 48.6°F9.2°C 40.7°F4.8°C 74% Calm Calm -- 29.86 in1011.2 mb 0.00 in0.0 mm 0.00 in0.0 mm 0.00 in0.0 mm
06:16 AM 48.6°F9.2°C 41.0°F5.0°C 75% Calm Calm 4.0 mph6.4 kmh 29.86 in1011.2 mb 0.00 in0.0 mm 0.00 in0.0 mm 0.00 in0.0 mm
06:21 AM 48.5°F9.2°C 40.9°F4.9°C 75% Calm Calm 4.0 mph6.4 kmh 29.86 in1011.2 mb 0.00 in0.0 mm 0.00 in0.0 mm 0.00 in0.0 mm
06:26 AM 48.5°F9.2°C 40.9°F4.9°C 75% Calm Calm -- 29.86 in1011.2 mb 0.00 in0.0 mm 0.00 in0.0 mm 0.00 in0.0 mm
06:31 AM 48.5°F9.2°C 40.9°F4.9°C 75% Calm Calm -- 29.86 in1011.2 mb 0.00 in0.0 mm 0.00 in0.0 mm 0.00 in0.0 mm
06:36 AM 48.5°F9.2°C 40.9°F4.9°C 75% Calm Calm -- 29.86 in1011.2 mb 0.00 in0.0 mm 0.00 in0.0 mm 0.00 in0.0 mm
06:41 AM 48.5°F9.2°C 40.9°F4.9°C 75% Calm Calm -- 29.85 in1010.8 mb 0.00 in0.0 mm 0.00 in0.0 mm 0.00 in0.0 mm
06:46 AM 48.5°F9.2°C 40.9°F4.9°C 75% Calm Calm 2.0 mph3.2 kmh 29.85 in1010.8 mb 0.00 in0.0 mm 0.00 in0.0 mm 0.00 in0.0 mm
06:51 AM 48.5°F9.2°C 41.3°F5.2°C 76% Calm Calm 2.0 mph3.2 kmh 29.84 in1010.5 mb 0.00 in0.0 mm 0.00 in0.0 mm 0.00 in0.0 mm
06:56 AM 48.5°F9.2°C 41.3°F5.2°C 76% Calm Calm -- 29.84 in1010.5 mb 0.00 in0.0 mm 0.00 in0.0 mm 0.00 in0.0 mm
07:01 AM 48.5°F9.2°C 41.3°F5.2°C 76% 1.0 mph S1.6 kmh S 3.0 mph4.8 kmh 29.84 in1010.5 mb 0.00 in0.0 mm 0.00 in0.0 mm 0.00 in0.0 mm
07:06 AM 48.6°F9.2°C 41.4°F5.2°C 76% Calm Calm -- 29.84 in1010.5 mb 0.00 in0.0 mm 0.00 in0.0 mm 0.00 in0.0 mm
07:11 AM 48.6°F9.2°C 41.4°F5.2°C 76% 1.0 mph S1.6 kmh S 2.0 mph3.2 kmh 29.84 in1010.5 mb 0.00 in0.0 mm 0.00 in0.0 mm 0.00 in0.0 mm
07:16 AM 48.8°F9.3°C 41.6°F5.3°C 76% Calm Calm 6.0 mph9.7 kmh 29.84 in1010.5 mb 0.00 in0.0 mm 0.00 in0.0 mm 0.00 in0.0 mm
07:21 AM 48.9°F9.4°C 41.7°F5.4°C 76% Calm Calm 4.0 mph6.4 kmh 29.84 in1010.5 mb 0.00 in0.0 mm 0.00 in0.0 mm 0.00 in0.0 mm
07:26 AM 49.0°F9.4°C 41.4°F5.2°C 75% Calm Calm 1.0 mph1.6 kmh 29.84 in1010.5 mb 0.00 in0.0 mm 0.00 in0.0 mm 0.00 in0.0 mm
07:31 AM 49.0°F9.4°C 41.4°F5.2°C 75% 3.0 mph S4.8 kmh S 3.0 mph4.8 kmh 29.84 in1010.5 mb 0.00 in0.0 mm 0.00 in0.0 mm 0.00 in0.0 mm
07:36 AM 49.1°F9.5°C 41.5°F5.3°C 75% Calm Calm 3.0 mph4.8 kmh 29.83 in1010.2 mb 0.00 in0.0 mm 0.00 in0.0 mm 0.00 in0.0 mm
07:41 AM 49.2°F9.6°C 41.6°F5.3°C 75% 1.0 mph S1.6 kmh S 3.0 mph4.8 kmh 29.84 in1010.5 mb 0.00 in0.0 mm 0.00 in0.0 mm 0.00 in0.0 mm
07:46 AM 49.4°F9.7°C 41.8°F5.4°C 75% Calm Calm 4.0 mph6.4 kmh 29.84 in1010.5 mb 0.00 in0.0 mm 0.00 in0.0 mm 0.00 in0.0 mm
07:51 AM 49.4°F9.7°C 41.5°F5.3°C 74% Calm Calm 3.0 mph4.8 kmh 29.84 in1010.5 mb 0.00 in0.0 mm 0.00 in0.0 mm 0.00 in0.0 mm
07:56 AM 49.6°F9.8°C 41.7°F5.4°C 74% Calm Calm 3.0 mph4.8 kmh 29.83 in1010.2 mb 0.00 in0.0 mm 0.00 in0.0 mm 0.00 in0.0 mm
08:01 AM 49.7°F9.8°C 41.8°F5.4°C 74% 3.0 mph S4.8 kmh S 6.0 mph9.7 kmh 29.83 in1010.2 mb 0.00 in0.0 mm 0.00 in0.0 mm 0.00 in0.0 mm
08:06 AM 50.0°F10.0°C 42.0°F5.6°C 74% Calm Calm 2.0 mph3.2 kmh 29.83 in1010.2 mb 0.00 in0.0 mm 0.00 in0.0 mm 0.00 in0.0 mm
08:11 AM 50.1°F10.1°C 42.1°F5.6°C 74% Calm Calm 3.0 mph4.8 kmh 29.83 in1010.2 mb 0.00 in0.0 mm 0.00 in0.0 mm 0.00 in0.0 mm
08:16 AM 50.3°F10.2°C 42.0°F5.6°C 73% Calm Calm 2.0 mph3.2 kmh 29.82 in1009.8 mb 0.00 in0.0 mm 0.00 in0.0 mm 0.00 in0.0 mm
08:21 AM 50.4°F10.2°C 42.1°F5.6°C 73% Calm Calm 4.0 mph6.4 kmh 29.82 in1009.8 mb 0.00 in0.0 mm 0.00 in0.0 mm 0.00 in0.0 mm
08:26 AM 50.5°F10.3°C 42.2°F5.7°C 73% Calm Calm 3.0 mph4.8 kmh 29.82 in1009.8 mb 0.00 in0.0 mm 0.00 in0.0 mm 0.00 in0.0 mm
08:31 AM 50.7°F10.4°C 42.0°F5.6°C 72% Calm Calm -- 29.82 in1009.8 mb 0.00 in0.0 mm 0.00 in0.0 mm 0.00 in0.0 mm
08:36 AM 50.8°F10.4°C 42.1°F5.6°C 72% Calm Calm -- 29.83 in1010.2 mb 0.00 in0.0 mm 0.00 in0.0 mm 0.00 in0.0 mm
08:41 AM 50.9°F10.5°C 42.2°F5.7°C 72% Calm Calm 5.0 mph8.0 kmh 29.82 in1009.8 mb 0.00 in0.0 mm 0.00 in0.0 mm 0.00 in0.0 mm
08:46 AM 51.0°F10.6°C 42.3°F5.7°C 72% Calm Calm 6.0 mph9.7 kmh 29.81 in1009.5 mb 0.00 in0.0 mm 0.00 in0.0 mm 0.00 in0.0 mm
08:51 AM 51.2°F10.7°C 42.5°F5.8°C 72% Calm Calm -- 29.82 in1009.8 mb 0.00 in0.0 mm 0.00 in0.0 mm 0.00 in0.0 mm
08:56 AM 51.3°F10.7°C 42.6°F5.9°C 72% Calm Calm 1.0 mph1.6 kmh 29.83 in1010.2 mb 0.00 in0.0 mm 0.00 in0.0 mm 0.00 in0.0 mm
09:01 AM 51.4°F10.8°C 42.7°F5.9°C 72% Calm Calm -- 29.82 in1009.8 mb 0.00 in0.0 mm 0.00 in0.0 mm 0.00 in0.0 mm
09:06 AM 51.5°F10.8°C 42.8°F6.0°C 72% Calm Calm 1.0 mph1.6 kmh 29.82 in1009.8 mb 0.00 in0.0 mm 0.00 in0.0 mm 0.00 in0.0 mm
09:11 AM 51.5°F10.8°C 42.8°F6.0°C 72% Calm Calm -- 29.82 in1009.8 mb 0.00 in0.0 mm 0.00 in0.0 mm 0.00 in0.0 mm
09:16 AM 51.5°F10.8°C 43.1°F6.2°C 73% Calm Calm 2.0 mph3.2 kmh 29.83 in1010.2 mb 0.00 in0.0 mm 0.00 in0.0 mm 0.00 in0.0 mm
09:21 AM 51.5°F10.8°C 43.1°F6.2°C 73% Calm Calm 4.0 mph6.4 kmh 29.83 in1010.2 mb 0.00 in0.0 mm 0.00 in0.0 mm 0.00 in0.0 mm
09:26 AM 51.6°F10.9°C 43.2°F6.2°C 73% Calm Calm 1.0 mph1.6 kmh 29.84 in1010.5 mb 0.00 in0.0 mm 0.00 in0.0 mm 0.00 in0.0 mm
09:31 AM 51.5°F10.8°C 43.1°F6.2°C 73% Calm Calm -- 29.84 in1010.5 mb 0.00 in0.0 mm 0.00 in0.0 mm 0.00 in0.0 mm
09:36 AM 51.6°F10.9°C 43.2°F6.2°C 73% Calm Calm 5.0 mph8.0 kmh 29.84 in1010.5 mb 0.00 in0.0 mm 0.00 in0.0 mm 0.00 in0.0 mm
09:41 AM 51.7°F10.9°C 43.7°F6.5°C 74% 3.0 mph SE4.8 kmh SE 3.0 mph4.8 kmh 29.84 in1010.5 mb 0.00 in0.0 mm 0.00 in0.0 mm 0.00 in0.0 mm
09:46 AM 51.8°F11.0°C 43.8°F6.6°C 74% Calm Calm -- 29.84 in1010.5 mb 0.00 in0.0 mm 0.00 in0.0 mm 0.00 in0.0 mm
09:51 AM 51.8°F11.0°C 44.1°F6.7°C 75% Calm Calm 1.0 mph1.6 kmh 29.84 in1010.5 mb 0.00 in0.0 mm 0.00 in0.0 mm 0.00 in0.0 mm
09:56 AM 51.8°F11.0°C 44.1°F6.7°C 75% Calm Calm 2.0 mph3.2 kmh 29.84 in1010.5 mb 0.00 in0.0 mm 0.00 in0.0 mm 0.00 in0.0 mm
10:01 AM 51.8°F11.0°C 44.5°F6.9°C 76% Calm Calm 3.0 mph4.8 kmh 29.84 in1010.5 mb 0.00 in0.0 mm 0.00 in0.0 mm 0.00 in0.0 mm
10:06 AM 51.6°F10.9°C 45.0°F7.2°C 78% 4.0 mph SW6.4 kmh SW 4.0 mph6.4 kmh 29.84 in1010.5 mb 0.00 in0.0 mm 0.00 in0.0 mm 0.01 in0.3 mm
10:11 AM 51.3°F10.7°C 45.7°F7.6°C 81% Calm Calm 2.0 mph3.2 kmh 29.85 in1010.8 mb 0.12 in3.0 mm 1.44 in36.6 mm 0.02 in0.5 mm
10:16 AM 51.0°F10.6°C 45.7°F7.6°C 82% Calm Calm 4.0 mph6.4 kmh 29.85 in1010.8 mb 0.09 in2.3 mm 0.00 in0.0 mm 0.03 in0.8 mm
10:21 AM 50.6°F10.3°C 45.9°F7.7°C 84% 2.0 mph SW3.2 kmh SW 2.0 mph3.2 kmh 29.85 in1010.8 mb 0.17 in4.3 mm 0.96 in24.4 mm 0.04 in1.0 mm
10:26 AM 50.4°F10.2°C 46.1°F7.8°C 85% Calm Calm 6.0 mph9.7 kmh 29.85 in1010.8 mb 0.11 in2.8 mm 0.00 in0.0 mm 0.05 in1.3 mm
10:31 AM 50.2°F10.1°C 46.2°F7.9°C 86% Calm Calm 3.0 mph4.8 kmh 29.85 in1010.8 mb 0.08 in2.0 mm 0.00 in0.0 mm 0.05 in1.3 mm
10:36 AM 50.1°F10.1°C 46.4°F8.0°C 87% 2.0 mph S3.2 kmh S 4.0 mph6.4 kmh 29.85 in1010.8 mb 0.08 in2.0 mm 0.00 in0.0 mm 0.06 in1.5 mm
10:40 AM 50.0°F10.0°C 46.6°F8.1°C 88% Calm Calm 6.0 mph9.7 kmh 29.85 in1010.8 mb 0.06 in1.5 mm 0.00 in0.0 mm 0.06 in1.5 mm
10:46 AM 49.9°F9.9°C 46.5°F8.1°C 88% Calm Calm 6.0 mph9.7 kmh 29.84 in1010.5 mb 0.06 in1.5 mm 0.00 in0.0 mm 0.07 in1.8 mm
10:51 AM 49.9°F9.9°C 46.8°F8.2°C 89% Calm Calm 3.0 mph4.8 kmh 29.84 in1010.5 mb 0.06 in1.5 mm 0.00 in0.0 mm 0.08 in2.0 mm
10:56 AM 49.8°F9.9°C 46.7°F8.2°C 89% Calm Calm 3.0 mph4.8 kmh 29.84 in1010.5 mb 0.06 in1.5 mm 0.00 in0.0 mm 0.08 in2.0 mm
11:01 AM 49.7°F9.8°C 46.9°F8.3°C 90% Calm Calm 4.0 mph6.4 kmh 29.84 in1010.5 mb 0.09 in2.3 mm 0.03 in0.8 mm 0.09 in2.3 mm
11:06 AM 49.7°F9.8°C 46.9°F8.3°C 90% Calm Calm 3.0 mph4.8 kmh 29.84 in1010.5 mb 0.12 in3.0 mm 0.36 in9.1 mm 0.10 in2.5 mm
11:11 AM 49.7°F9.8°C 46.9°F8.3°C 90% Calm Calm -- 29.83 in1010.2 mb 0.07 in1.8 mm 0.00 in0.0 mm 0.10 in2.5 mm
11:16 AM 49.7°F9.8°C 46.9°F8.3°C 90% Calm Calm 4.0 mph6.4 kmh 29.83 in1010.2 mb 0.07 in1.8 mm 0.00 in0.0 mm 0.11 in2.8 mm
11:21 AM 49.7°F9.8°C 47.2°F8.4°C 91% Calm Calm 4.0 mph6.4 kmh 29.83 in1010.2 mb 0.06 in1.5 mm 0.00 in0.0 mm 0.11 in2.8 mm
11:26 AM 49.8°F9.9°C 47.3°F8.5°C 91% Calm Calm -- 29.82 in1009.8 mb 0.15 in3.8 mm 1.08 in27.4 mm 0.13 in3.3 mm
11:31 AM 49.8°F9.9°C 47.3°F8.5°C 91% Calm Calm -- 29.82 in1009.8 mb 0.16 in4.1 mm 0.12 in3.0 mm 0.14 in3.6 mm
11:36 AM 49.8°F9.9°C 47.3°F8.5°C 91% 5.0 mph SW8.0 kmh SW 7.0 mph11.3 kmh 29.81 in1009.5 mb 0.10 in2.5 mm 0.00 in0.0 mm 0.15 in3.8 mm
11:41 AM 49.9°F9.9°C 47.4°F8.6°C 91% 2.0 mph S3.2 kmh S 2.0 mph3.2 kmh 29.81 in1009.5 mb 0.09 in2.3 mm 0.00 in0.0 mm 0.15 in3.8 mm
11:46 AM 49.9°F9.9°C 47.4°F8.6°C 91% Calm Calm 4.0 mph6.4 kmh 29.81 in1009.5 mb 0.06 in1.5 mm 0.00 in0.0 mm 0.16 in4.1 mm
11:51 AM 49.9°F9.9°C 47.4°F8.6°C 91% Calm Calm 2.0 mph3.2 kmh 29.81 in1009.5 mb 0.06 in1.5 mm 0.00 in0.0 mm 0.16 in4.1 mm
11:56 AM 50.0°F10.0°C 47.8°F8.8°C 92% Calm Calm 4.0 mph6.4 kmh 29.81 in1009.5 mb 0.06 in1.5 mm 0.00 in0.0 mm 0.16 in4.1 mm
12:01 PM 50.0°F10.0°C 47.8°F8.8°C 92% Calm Calm 7.0 mph11.3 kmh 29.80 in1009.1 mb 0.04 in1.0 mm 0.00 in0.0 mm 0.16 in4.1 mm
12:06 PM 50.1°F10.1°C 47.9°F8.8°C 92% Calm Calm 7.0 mph11.3 kmh 29.80 in1009.1 mb 0.00 in0.0 mm 0.00 in0.0 mm 0.16 in4.1 mm
12:11 PM 50.1°F10.1°C 47.9°F8.8°C 92% Calm Calm -- 29.80 in1009.1 mb 0.00 in0.0 mm 0.00 in0.0 mm 0.16 in4.1 mm
12:16 PM 50.2°F10.1°C 48.0°F8.9°C 92% 5.0 mph S8.0 kmh S 5.0 mph8.0 kmh 29.80 in1009.1 mb 0.00 in0.0 mm 0.00 in0.0 mm 0.16 in4.1 mm
12:20 PM 50.3°F10.2°C 48.1°F8.9°C 92% Calm Calm 5.0 mph8.0 kmh 29.80 in1009.1 mb 0.00 in0.0 mm 0.00 in0.0 mm 0.16 in4.1 mm
12:25 PM 50.3°F10.2°C 48.1°F8.9°C 92% Calm Calm 6.0 mph9.7 kmh 29.79 in1008.8 mb 0.00 in0.0 mm 0.00 in0.0 mm 0.16 in4.1 mm
12:31 PM 50.5°F10.3°C 48.3°F9.1°C 92% Calm Calm 6.0 mph9.7 kmh 29.79 in1008.8 mb 0.00 in0.0 mm 0.00 in0.0 mm 0.16 in4.1 mm
12:36 PM 50.5°F10.3°C 48.3°F9.1°C 92% Calm Calm 6.0 mph9.7 kmh 29.79 in1008.8 mb 0.00 in0.0 mm 0.00 in0.0 mm 0.16 in4.1 mm
12:41 PM 50.6°F10.3°C 48.4°F9.1°C 92% 2.0 mph SSW3.2 kmh SSW 6.0 mph9.7 kmh 29.78 in1008.5 mb 0.00 in0.0 mm 0.00 in0.0 mm 0.16 in4.1 mm
12:46 PM 50.8°F10.4°C 48.6°F9.2°C 92% Calm Calm 3.0 mph4.8 kmh 29.78 in1008.5 mb 0.00 in0.0 mm 0.00 in0.0 mm 0.16 in4.1 mm
12:51 PM 50.9°F10.5°C 48.7°F9.3°C 92% 1.0 mph SW1.6 kmh SW 2.0 mph3.2 kmh 29.78 in1008.5 mb 0.00 in0.0 mm 0.00 in0.0 mm 0.16 in4.1 mm
12:56 PM 51.0°F10.6°C 48.8°F9.3°C 92% Calm Calm -- 29.78 in1008.5 mb 0.00 in0.0 mm 0.00 in0.0 mm 0.16 in4.1 mm
01:01 PM 51.1°F10.6°C 48.9°F9.4°C 92% 2.0 mph WSW3.2 kmh WSW 3.0 mph4.8 kmh 29.79 in1008.8 mb 0.00 in0.0 mm 0.00 in0.0 mm 0.16 in4.1 mm
01:06 PM 51.2°F10.7°C 49.0°F9.4°C 92% Calm Calm -- 29.79 in1008.8 mb 0.00 in0.0 mm 0.00 in0.0 mm 0.16 in4.1 mm
01:11 PM 51.3°F10.7°C 49.1°F9.5°C 92% Calm Calm -- 29.79 in1008.8 mb 0.00 in0.0 mm 0.00 in0.0 mm 0.16 in4.1 mm
01:16 PM 51.3°F10.7°C 49.1°F9.5°C 92% Calm Calm 1.0 mph1.6 kmh 29.81 in1009.5 mb 0.00 in0.0 mm 0.00 in0.0 mm 0.16 in4.1 mm
01:21 PM 51.4°F10.8°C 49.2°F9.6°C 92% Calm Calm 5.0 mph8.0 kmh 29.81 in1009.5 mb 0.00 in0.0 mm 0.00 in0.0 mm 0.16 in4.1 mm
01:26 PM 51.4°F10.8°C 49.2°F9.6°C 92% 1.0 mph NW1.6 kmh NW 6.0 mph9.7 kmh 29.83 in1010.2 mb 0.00 in0.0 mm 0.00 in0.0 mm 0.16 in4.1 mm
01:31 PM 51.5°F10.8°C 49.3°F9.6°C 92% 2.0 mph NW3.2 kmh NW 10.0 mph16.1 kmh 29.83 in1010.2 mb 0.00 in0.0 mm 0.00 in0.0 mm 0.16 in4.1 mm
01:36 PM 51.8°F11.0°C 49.5°F9.7°C 92% Calm Calm 5.0 mph8.0 kmh 29.83 in1010.2 mb 0.00 in0.0 mm 0.00 in0.0 mm 0.16 in4.1 mm
01:41 PM 52.0°F11.1°C 49.7°F9.8°C 92% Calm Calm 8.0 mph12.9 kmh 29.83 in1010.2 mb 0.00 in0.0 mm 0.00 in0.0 mm 0.16 in4.1 mm
01:46 PM 52.0°F11.1°C 49.7°F9.8°C 92% Calm Calm -- 29.83 in1010.2 mb 0.00 in0.0 mm 0.00 in0.0 mm 0.16 in4.1 mm
01:51 PM 51.9°F11.1°C 49.4°F9.7°C 91% 5.0 mph NW8.0 kmh NW 7.0 mph11.3 kmh 29.83 in1010.2 mb 0.00 in0.0 mm 0.00 in0.0 mm 0.16 in4.1 mm
01:56 PM 52.0°F11.1°C 49.5°F9.7°C 91% 3.0 mph NNW4.8 kmh NNW 16.0 mph25.7 kmh 29.84 in1010.5 mb 0.00 in0.0 mm 0.00 in0.0 mm 0.16 in4.1 mm
02:00 PM 52.4°F11.3°C 49.3°F9.6°C 89% 1.0 mph NW1.6 kmh NW 16.0 mph25.7 kmh 29.83 in1010.2 mb 0.00 in0.0 mm 0.00 in0.0 mm 0.16 in4.1 mm
02:05 PM 52.5°F11.4°C 48.4°F9.1°C 86% 1.0 mph NW1.6 kmh NW 16.0 mph25.7 kmh 29.83 in1010.2 mb 0.00 in0.0 mm 0.00 in0.0 mm 0.16 in4.1 mm
02:10 PM 52.4°F11.3°C 47.7°F8.7°C 84% Calm Calm 16.0 mph25.7 kmh 29.82 in1009.8 mb 0.00 in0.0 mm 0.00 in0.0 mm 0.16 in4.1 mm
02:16 PM 52.5°F11.4°C 47.8°F8.8°C 84% Calm Calm -- 29.81 in1009.5 mb 0.00 in0.0 mm 0.00 in0.0 mm 0.16 in4.1 mm
02:21 PM 52.4°F11.3°C 47.7°F8.7°C 84% Calm Calm -- 29.81 in1009.5 mb 0.00 in0.0 mm 0.00 in0.0 mm 0.16 in4.1 mm
02:26 PM 52.4°F11.3°C 47.4°F8.6°C 83% Calm Calm -- 29.81 in1009.5 mb 0.00 in0.0 mm 0.00 in0.0 mm 0.16 in4.1 mm
02:31 PM 52.4°F11.3°C 47.4°F8.6°C 83% Calm Calm 2.0 mph3.2 kmh 29.82 in1009.8 mb 0.00 in0.0 mm 0.00 in0.0 mm 0.16 in4.1 mm
02:36 PM 52.3°F11.3°C 46.6°F8.1°C 81% Calm Calm 2.0 mph3.2 kmh 29.82 in1009.8 mb 0.00 in0.0 mm 0.00 in0.0 mm 0.16 in4.1 mm
02:41 PM 52.4°F11.3°C 46.4°F8.0°C 80% Calm Calm -- 29.82 in1009.8 mb 0.00 in0.0 mm 0.00 in0.0 mm 0.16 in4.1 mm
02:46 PM 52.3°F11.3°C 44.6°F7.0°C 75% 2.0 mph NW3.2 kmh NW 6.0 mph9.7 kmh 29.82 in1009.8 mb 0.00 in0.0 mm 0.00 in0.0 mm 0.16 in4.1 mm
02:51 PM 52.4°F11.3°C 42.5°F5.8°C 69% 8.0 mph WNW12.9 kmh WNW 13.0 mph20.9 kmh 29.82 in1009.8 mb 0.00 in0.0 mm 0.00 in0.0 mm 0.16 in4.1 mm
02:56 PM 52.5°F11.4°C 41.5°F5.3°C 66% 3.0 mph NW4.8 kmh NW 17.0 mph27.4 kmh 29.82 in1009.8 mb 0.00 in0.0 mm 0.00 in0.0 mm 0.16 in4.1 mm
03:00 PM 52.5°F11.4°C 41.1°F5.1°C 65% 1.0 mph NW1.6 kmh NW 17.0 mph27.4 kmh 29.82 in1009.8 mb 0.00 in0.0 mm 0.00 in0.0 mm 0.16 in4.1 mm
03:05 PM 52.4°F11.3°C 41.0°F5.0°C 65% 3.0 mph WNW4.8 kmh WNW 17.0 mph27.4 kmh 29.83 in1010.2 mb 0.00 in0.0 mm 0.00 in0.0 mm 0.16 in4.1 mm
03:10 PM 52.4°F11.3°C 40.2°F4.6°C 63% 8.0 mph 12.9 kmh 17.0 mph27.4 kmh 29.84 in1010.5 mb 0.00 in0.0 mm 0.00 in0.0 mm 0.16 in4.1 mm
03:15 PM 52.5°F11.4°C 40.3°F4.6°C 63% 6.0 mph NNW9.7 kmh NNW 15.0 mph24.1 kmh 29.83 in1010.2 mb 0.00 in0.0 mm 0.00 in0.0 mm 0.16 in4.1 mm
03:21 PM 52.4°F11.3°C 40.2°F4.6°C 63% 2.0 mph N3.2 kmh N 15.0 mph24.1 kmh 29.84 in1010.5 mb 0.00 in0.0 mm 0.00 in0.0 mm 0.16 in4.1 mm
03:26 PM 52.4°F11.3°C 40.2°F4.6°C 63% Calm Calm 11.0 mph17.7 kmh 29.84 in1010.5 mb 0.00 in0.0 mm 0.00 in0.0 mm 0.16 in4.1 mm
03:31 PM 52.3°F11.3°C 40.1°F4.5°C 63% Calm Calm 11.0 mph17.7 kmh 29.85 in1010.8 mb 0.00 in0.0 mm 0.00 in0.0 mm 0.16 in4.1 mm
03:36 PM 52.4°F11.3°C 39.3°F4.1°C 61% Calm Calm 8.0 mph12.9 kmh 29.85 in1010.8 mb 0.00 in0.0 mm 0.00 in0.0 mm 0.16 in4.1 mm
03:41 PM 52.3°F11.3°C 39.3°F4.1°C 61% 10.0 mph N16.1 kmh N 10.0 mph16.1 kmh 29.85 in1010.8 mb 0.00 in0.0 mm 0.00 in0.0 mm 0.16 in4.1 mm
03:46 PM 52.3°F11.3°C 39.3°F4.1°C 61% 12.0 mph NNW19.3 kmh NNW 12.0 mph19.3 kmh 29.86 in1011.2 mb 0.00 in0.0 mm 0.00 in0.0 mm 0.16 in4.1 mm
03:51 PM 52.5°F11.4°C 39.4°F4.1°C 61% 2.0 mph NW3.2 kmh NW 12.0 mph19.3 kmh 29.86 in1011.2 mb 0.00 in0.0 mm 0.00 in0.0 mm 0.16 in4.1 mm
03:56 PM 52.5°F11.4°C 39.0°F3.9°C 60% 6.0 mph NW9.7 kmh NW 12.0 mph19.3 kmh 29.86 in1011.2 mb 0.00 in0.0 mm 0.00 in0.0 mm 0.16 in4.1 mm
04:01 PM 52.6°F11.4°C 39.1°F3.9°C 60% 2.0 mph NW3.2 kmh NW 13.0 mph20.9 kmh 29.86 in1011.2 mb 0.00 in0.0 mm 0.00 in0.0 mm 0.16 in4.1 mm
04:06 PM 52.6°F11.4°C 39.5°F4.2°C 61% 1.0 mph NW1.6 kmh NW 13.0 mph20.9 kmh 29.86 in1011.2 mb 0.00 in0.0 mm 0.00 in0.0 mm 0.16 in4.1 mm
04:11 PM 52.4°F11.3°C 39.3°F4.1°C 61% 3.0 mph NW4.8 kmh NW 14.0 mph22.5 kmh 29.87 in1011.5 mb 0.00 in0.0 mm 0.00 in0.0 mm 0.16 in4.1 mm
04:15 PM 52.2°F11.2°C 38.7°F3.7°C 60% 5.0 mph NE8.0 kmh NE 14.0 mph22.5 kmh 29.87 in1011.5 mb 0.00 in0.0 mm 0.00 in0.0 mm 0.16 in4.1 mm
04:20 PM 52.1°F11.2°C 38.2°F3.4°C 59% 7.0 mph NNW11.3 kmh NNW 18.0 mph29.0 kmh 29.87 in1011.5 mb 0.00 in0.0 mm 0.00 in0.0 mm 0.16 in4.1 mm
04:25 PM 52.1°F11.2°C 37.8°F3.2°C 58% 6.0 mph N9.7 kmh N 18.0 mph29.0 kmh 29.88 in1011.9 mb 0.00 in0.0 mm 0.00 in0.0 mm 0.16 in4.1 mm
04:30 PM 51.8°F11.0°C 37.9°F3.3°C 59% 4.0 mph WNW6.4 kmh WNW 18.0 mph29.0 kmh 29.88 in1011.9 mb 0.00 in0.0 mm 0.00 in0.0 mm 0.16 in4.1 mm
04:36 PM 51.7°F10.9°C 37.0°F2.8°C 57% 4.0 mph NW6.4 kmh NW 18.0 mph29.0 kmh 29.89 in1012.2 mb 0.00 in0.0 mm 0.00 in0.0 mm 0.16 in4.1 mm
04:41 PM 51.6°F10.9°C 37.3°F2.9°C 58% 1.0 mph NNW1.6 kmh NNW 15.0 mph24.1 kmh 29.89 in1012.2 mb 0.00 in0.0 mm 0.00 in0.0 mm 0.16 in4.1 mm
04:46 PM 51.4°F10.8°C 37.1°F2.8°C 58% Calm Calm 15.0 mph24.1 kmh 29.88 in1011.9 mb 0.00 in0.0 mm 0.00 in0.0 mm 0.16 in4.1 mm
04:51 PM 51.2°F10.7°C 36.9°F2.7°C 58% 6.0 mph WNW9.7 kmh WNW 12.0 mph19.3 kmh 29.88 in1011.9 mb 0.00 in0.0 mm 0.00 in0.0 mm 0.16 in4.1 mm
04:56 PM 51.1°F10.6°C 36.8°F2.7°C 58% 1.0 mph NW1.6 kmh NW 12.0 mph19.3 kmh 29.88 in1011.9 mb 0.00 in0.0 mm 0.00 in0.0 mm 0.16 in4.1 mm
05:01 PM 50.8°F10.4°C 37.0°F2.8°C 59% 1.0 mph WSW1.6 kmh WSW 12.0 mph19.3 kmh 29.89 in1012.2 mb 0.00 in0.0 mm 0.00 in0.0 mm 0.16 in4.1 mm
05:06 PM 50.7°F10.4°C 36.5°F2.5°C 58% 1.0 mph NW1.6 kmh NW 12.0 mph19.3 kmh 29.90 in1012.5 mb 0.00 in0.0 mm 0.00 in0.0 mm 0.16 in4.1 mm
05:11 PM 50.5°F10.3°C 36.7°F2.6°C 59% Calm Calm 6.0 mph9.7 kmh 29.91 in1012.9 mb 0.00 in0.0 mm 0.00 in0.0 mm 0.16 in4.1 mm
05:16 PM 50.4°F10.2°C 36.2°F2.3°C 58% Calm Calm 9.0 mph14.5 kmh 29.91 in1012.9 mb 0.00 in0.0 mm 0.00 in0.0 mm 0.16 in4.1 mm
05:21 PM 50.2°F10.1°C 36.0°F2.2°C 58% 2.0 mph NW3.2 kmh NW 5.0 mph8.0 kmh 29.92 in1013.2 mb 0.00 in0.0 mm 0.00 in0.0 mm 0.16 in4.1 mm
05:26 PM 50.0°F10.0°C 35.8°F2.1°C 58% 1.0 mph NW1.6 kmh NW 7.0 mph11.3 kmh 29.92 in1013.2 mb 0.00 in0.0 mm 0.00 in0.0 mm 0.16 in4.1 mm
05:31 PM 49.9°F9.9°C 35.7°F2.1°C 58% 2.0 mph NW3.2 kmh NW 8.0 mph12.9 kmh 29.92 in1013.2 mb 0.00 in0.0 mm 0.00 in0.0 mm 0.16 in4.1 mm
05:36 PM 49.9°F9.9°C 34.8°F1.6°C 56% 2.0 mph NW3.2 kmh NW 9.0 mph14.5 kmh 29.93 in1013.5 mb 0.00 in0.0 mm 0.00 in0.0 mm 0.16 in4.1 mm
05:40 PM 49.9°F9.9°C 34.8°F1.6°C 56% 3.0 mph NNW4.8 kmh NNW 13.0 mph20.9 kmh 29.92 in1013.2 mb 0.00 in0.0 mm 0.00 in0.0 mm 0.16 in4.1 mm
05:45 PM 49.6°F9.8°C 34.6°F1.4°C 56% 7.0 mph NW11.3 kmh NW 13.0 mph20.9 kmh 29.92 in1013.2 mb 0.00 in0.0 mm 0.00 in0.0 mm 0.16 in4.1 mm
05:50 PM 49.5°F9.7°C 34.5°F1.4°C 56% 9.0 mph N14.5 kmh N 13.0 mph20.9 kmh 29.93 in1013.5 mb 0.00 in0.0 mm 0.00 in0.0 mm 0.16 in4.1 mm
05:55 PM 49.6°F9.8°C 34.1°F1.2°C 55% 11.0 mph NNW17.7 kmh NNW 13.0 mph20.9 kmh 29.93 in1013.5 mb 0.00 in0.0 mm 0.00 in0.0 mm 0.16 in4.1 mm
06:01 PM 49.4°F9.7°C 33.9°F1.1°C 55% 9.0 mph NNW14.5 kmh NNW 13.0 mph20.9 kmh 29.94 in1013.9 mb 0.00 in0.0 mm 0.00 in0.0 mm 0.16 in4.1 mm
06:06 PM 49.2°F9.6°C 34.2°F1.2°C 56% Calm Calm 13.0 mph20.9 kmh 29.95 in1014.2 mb 0.00 in0.0 mm 0.00 in0.0 mm 0.16 in4.1 mm
06:11 PM 49.0°F9.4°C 34.0°F1.1°C 56% Calm Calm 13.0 mph20.9 kmh 29.95 in1014.2 mb 0.00 in0.0 mm 0.00 in0.0 mm 0.16 in4.1 mm
06:16 PM 49.0°F9.4°C 34.0°F1.1°C 56% 2.0 mph NW3.2 kmh NW 13.0 mph20.9 kmh 29.95 in1014.2 mb 0.00 in0.0 mm 0.00 in0.0 mm 0.16 in4.1 mm
06:21 PM 48.9°F9.4°C 33.9°F1.1°C 56% Calm Calm 9.0 mph14.5 kmh 29.96 in1014.6 mb 0.00 in0.0 mm 0.00 in0.0 mm 0.16 in4.1 mm
06:26 PM 48.8°F9.3°C 33.8°F1.0°C 56% Calm Calm 10.0 mph16.1 kmh 29.96 in1014.6 mb 0.00 in0.0 mm 0.00 in0.0 mm 0.16 in4.1 mm
06:31 PM 48.6°F9.2°C 33.6°F0.9°C 56% Calm Calm -- 29.97 in1014.9 mb 0.00 in0.0 mm 0.00 in0.0 mm 0.16 in4.1 mm
06:36 PM 48.4°F9.1°C 33.4°F0.8°C 56% Calm Calm 3.0 mph4.8 kmh 29.97 in1014.9 mb 0.00 in0.0 mm 0.00 in0.0 mm 0.16 in4.1 mm
06:40 PM 48.2°F9.0°C 33.7°F0.9°C 57% 4.0 mph NW6.4 kmh NW 6.0 mph9.7 kmh 29.97 in1014.9 mb 0.00 in0.0 mm 0.00 in0.0 mm 0.16 in4.1 mm
06:45 PM 48.0°F8.9°C 33.9°F1.1°C 58% 2.0 mph NW3.2 kmh NW 4.0 mph6.4 kmh 29.98 in1015.2 mb 0.00 in0.0 mm 0.00 in0.0 mm 0.16 in4.1 mm
06:50 PM 47.9°F8.8°C 33.8°F1.0°C 58% 5.0 mph NNW8.0 kmh NNW 6.0 mph9.7 kmh 29.97 in1014.9 mb 0.00 in0.0 mm 0.00 in0.0 mm 0.16 in4.1 mm
06:55 PM 47.6°F8.7°C 34.0°F1.1°C 59% Calm Calm 3.0 mph4.8 kmh 29.98 in1015.2 mb 0.00 in0.0 mm 0.00 in0.0 mm 0.16 in4.1 mm
07:00 PM 47.3°F8.5°C 33.7°F0.9°C 59% Calm Calm 3.0 mph4.8 kmh 29.98 in1015.2 mb 0.00 in0.0 mm 0.00 in0.0 mm 0.16 in4.1 mm
07:06 PM 47.2°F8.4°C 33.6°F0.9°C 59% Calm Calm 1.0 mph1.6 kmh 29.99 in1015.6 mb 0.00 in0.0 mm 0.00 in0.0 mm 0.16 in4.1 mm
07:11 PM 47.2°F8.4°C 33.6°F0.9°C 59% Calm Calm -- 30.00 in1015.9 mb 0.00 in0.0 mm 0.00 in0.0 mm 0.16 in4.1 mm
07:16 PM 46.9°F8.3°C 33.7°F0.9°C 60% Calm Calm -- 30.00 in1015.9 mb 0.00 in0.0 mm 0.00 in0.0 mm 0.16 in4.1 mm
07:21 PM 46.7°F8.2°C 33.6°F0.9°C 60% 3.0 mph NNW4.8 kmh NNW 4.0 mph6.4 kmh 30.00 in1015.9 mb 0.00 in0.0 mm 0.00 in0.0 mm 0.16 in4.1 mm
07:26 PM 46.7°F8.2°C 33.6°F0.9°C 60% 2.0 mph NNW3.2 kmh NNW 7.0 mph11.3 kmh 30.00 in1015.9 mb 0.00 in0.0 mm 0.00 in0.0 mm 0.16 in4.1 mm
07:31 PM 46.5°F8.1°C 33.4°F0.8°C 60% 2.0 mph NW3.2 kmh NW 9.0 mph14.5 kmh 30.00 in1015.9 mb 0.00 in0.0 mm 0.00 in0.0 mm 0.16 in4.1 mm
07:36 PM 46.2°F7.9°C 33.5°F0.8°C 61% 1.0 mph NW1.6 kmh NW 9.0 mph14.5 kmh 30.00 in1015.9 mb 0.00 in0.0 mm 0.00 in0.0 mm 0.16 in4.1 mm
07:40 PM 46.1°F7.8°C 33.4°F0.8°C 61% Calm Calm 9.0 mph14.5 kmh 30.00 in1015.9 mb 0.00 in0.0 mm 0.00 in0.0 mm 0.16 in4.1 mm
07:45 PM 45.9°F7.7°C 33.2°F0.7°C 61% Calm Calm 9.0 mph14.5 kmh 30.01 in1016.3 mb 0.00 in0.0 mm 0.00 in0.0 mm 0.16 in4.1 mm
07:50 PM 45.9°F7.7°C 32.8°F0.4°C 60% 1.0 mph NW1.6 kmh NW 9.0 mph14.5 kmh 30.01 in1016.3 mb 0.00 in0.0 mm 0.00 in0.0 mm 0.16 in4.1 mm
07:55 PM 45.7°F7.6°C 32.6°F0.3°C 60% Calm Calm 9.0 mph14.5 kmh 30.01 in1016.3 mb 0.00 in0.0 mm 0.00 in0.0 mm 0.16 in4.1 mm
08:00 PM 45.5°F7.5°C 32.4°F0.2°C 60% 1.0 mph N1.6 kmh N 12.0 mph19.3 kmh 30.01 in1016.3 mb 0.00 in0.0 mm 0.00 in0.0 mm 0.16 in4.1 mm
08:06 PM 45.2°F7.3°C 32.6°F0.3°C 61% Calm Calm -- 30.01 in1016.3 mb 0.00 in0.0 mm 0.00 in0.0 mm 0.16 in4.1 mm
08:11 PM 45.0°F7.2°C 32.4°F0.2°C 61% Calm Calm 3.0 mph4.8 kmh 30.02 in1016.6 mb 0.00 in0.0 mm 0.00 in0.0 mm 0.16 in4.1 mm
08:16 PM 45.0°F7.2°C 32.4°F0.2°C 61% Calm Calm -- 30.02 in1016.6 mb 0.00 in0.0 mm 0.00 in0.0 mm 0.16 in4.1 mm
08:21 PM 44.9°F7.2°C 32.3°F0.2°C 61% 1.0 mph N1.6 kmh N 6.0 mph9.7 kmh 30.02 in1016.6 mb 0.00 in0.0 mm 0.00 in0.0 mm 0.16 in4.1 mm
08:26 PM 44.6°F7.0°C 32.4°F0.2°C 62% 2.0 mph NNW3.2 kmh NNW 3.0 mph4.8 kmh 30.02 in1016.6 mb 0.00 in0.0 mm 0.00 in0.0 mm 0.16 in4.1 mm
08:31 PM 44.6°F7.0°C 32.0°F0.0°C 61% 1.0 mph WNW1.6 kmh WNW 7.0 mph11.3 kmh 30.02 in1016.6 mb 0.00 in0.0 mm 0.00 in0.0 mm 0.16 in4.1 mm
08:36 PM 44.4°F6.9°C 31.8°F-0.1°C 61% 3.0 mph NNW4.8 kmh NNW 7.0 mph11.3 kmh 30.02 in1016.6 mb 0.00 in0.0 mm 0.00 in0.0 mm 0.16 in4.1 mm
08:41 PM 44.3°F6.8°C 31.7°F-0.2°C 61% Calm Calm 12.0 mph19.3 kmh 30.03 in1016.9 mb 0.00 in0.0 mm 0.00 in0.0 mm 0.16 in4.1 mm
08:46 PM 44.2°F6.8°C 31.6°F-0.2°C 61% Calm Calm -- 30.03 in1016.9 mb 0.00 in0.0 mm 0.00 in0.0 mm 0.16 in4.1 mm
08:51 PM 44.0°F6.7°C 31.4°F-0.3°C 61% Calm Calm 2.0 mph3.2 kmh 30.03 in1016.9 mb 0.00 in0.0 mm 0.00 in0.0 mm 0.16 in4.1 mm
08:56 PM 44.0°F6.7°C 31.4°F-0.3°C 61% 2.0 mph NNW3.2 kmh NNW 7.0 mph11.3 kmh 30.03 in1016.9 mb 0.00 in0.0 mm 0.00 in0.0 mm 0.16 in4.1 mm
09:01 PM 44.0°F6.7°C 31.4°F-0.3°C 61% 3.0 mph NW4.8 kmh NW 8.0 mph12.9 kmh 30.03 in1016.9 mb 0.00 in0.0 mm 0.00 in0.0 mm 0.16 in4.1 mm
09:05 PM 43.7°F6.5°C 31.1°F-0.5°C 61% 1.0 mph NNW1.6 kmh NNW 10.0 mph16.1 kmh 30.03 in1016.9 mb 0.00 in0.0 mm 0.00 in0.0 mm 0.16 in4.1 mm
09:10 PM 43.6°F6.4°C 31.5°F-0.3°C 62% Calm Calm 10.0 mph16.1 kmh 30.04 in1017.3 mb 0.00 in0.0 mm 0.00 in0.0 mm 0.16 in4.1 mm
09:15 PM 43.5°F6.4°C 31.0°F-0.6°C 61% Calm Calm 10.0 mph16.1 kmh 30.04 in1017.3 mb 0.00 in0.0 mm 0.00 in0.0 mm 0.16 in4.1 mm
09:20 PM 43.4°F6.3°C 30.9°F-0.6°C 61% 2.0 mph NNW3.2 kmh NNW 7.0 mph11.3 kmh 30.04 in1017.3 mb 0.00 in0.0 mm 0.00 in0.0 mm 0.16 in4.1 mm
09:25 PM 43.3°F6.3°C 30.8°F-0.7°C 61% Calm Calm 1.0 mph1.6 kmh 30.04 in1017.3 mb 0.00 in0.0 mm 0.00 in0.0 mm 0.16 in4.1 mm
09:31 PM 43.1°F6.2°C 31.0°F-0.6°C 62% Calm Calm 1.0 mph1.6 kmh 30.04 in1017.3 mb 0.00 in0.0 mm 0.00 in0.0 mm 0.16 in4.1 mm
09:36 PM 42.9°F6.1°C 30.8°F-0.7°C 62% Calm Calm 3.0 mph4.8 kmh 30.04 in1017.3 mb 0.00 in0.0 mm 0.00 in0.0 mm 0.16 in4.1 mm
09:41 PM 42.7°F5.9°C 31.0°F-0.6°C 63% Calm Calm 3.0 mph4.8 kmh 30.04 in1017.3 mb 0.00 in0.0 mm 0.00 in0.0 mm 0.16 in4.1 mm
09:46 PM 42.5°F5.8°C 30.8°F-0.7°C 63% Calm Calm 6.0 mph9.7 kmh 30.04 in1017.3 mb 0.00 in0.0 mm 0.00 in0.0 mm 0.16 in4.1 mm
09:51 PM 42.4°F5.8°C 30.7°F-0.7°C 63% Calm Calm -- 30.04 in1017.3 mb 0.00 in0.0 mm 0.00 in0.0 mm 0.16 in4.1 mm
09:56 PM 42.2°F5.7°C 30.5°F-0.8°C 63% Calm Calm -- 30.04 in1017.3 mb 0.00 in0.0 mm 0.00 in0.0 mm 0.16 in4.1 mm
10:01 PM 42.0°F5.6°C 30.3°F-0.9°C 63% Calm Calm -- 30.04 in1017.3 mb 0.00 in0.0 mm 0.00 in0.0 mm 0.16 in4.1 mm
10:06 PM 41.8°F5.4°C 30.5°F-0.8°C 64% Calm Calm 4.0 mph6.4 kmh 30.04 in1017.3 mb 0.00 in0.0 mm 0.00 in0.0 mm 0.16 in4.1 mm
10:11 PM 41.7°F5.4°C 30.4°F-0.9°C 64% Calm Calm 3.0 mph4.8 kmh 30.04 in1017.3 mb 0.00 in0.0 mm 0.00 in0.0 mm 0.16 in4.1 mm
10:16 PM 41.5°F5.3°C 30.2°F-1.0°C 64% Calm Calm -- 30.04 in1017.3 mb 0.00 in0.0 mm 0.00 in0.0 mm 0.16 in4.1 mm
10:21 PM 41.4°F5.2°C 30.1°F-1.1°C 64% Calm Calm -- 30.04 in1017.3 mb 0.00 in0.0 mm 0.00 in0.0 mm 0.16 in4.1 mm
10:26 PM 41.2°F5.1°C 30.3°F-0.9°C 65% Calm Calm 5.0 mph8.0 kmh 30.04 in1017.3 mb 0.00 in0.0 mm 0.00 in0.0 mm 0.16 in4.1 mm
10:31 PM 41.1°F5.1°C 30.2°F-1.0°C 65% Calm Calm 1.0 mph1.6 kmh 30.05 in1017.6 mb 0.00 in0.0 mm 0.00 in0.0 mm 0.16 in4.1 mm
10:36 PM 41.0°F5.0°C 30.1°F-1.1°C 65% Calm Calm -- 30.05 in1017.6 mb 0.00 in0.0 mm 0.00 in0.0 mm 0.16 in4.1 mm
10:41 PM 40.8°F4.9°C 30.0°F-1.1°C 65% Calm Calm 3.0 mph4.8 kmh 30.04 in1017.3 mb 0.00 in0.0 mm 0.00 in0.0 mm 0.16 in4.1 mm
10:46 PM 40.7°F4.8°C 29.9°F-1.2°C 65% Calm Calm -- 30.05 in1017.6 mb 0.00 in0.0 mm 0.00 in0.0 mm 0.16 in4.1 mm
10:51 PM 40.8°F4.9°C 29.6°F-1.3°C 64% Calm Calm 6.0 mph9.7 kmh 30.05 in1017.6 mb 0.00 in0.0 mm 0.00 in0.0 mm 0.16 in4.1 mm
10:56 PM 40.8°F4.9°C 29.6°F-1.3°C 64% Calm Calm -- 30.05 in1017.6 mb 0.00 in0.0 mm 0.00 in0.0 mm 0.16 in4.1 mm
11:01 PM 40.7°F4.8°C 29.9°F-1.2°C 65% Calm Calm -- 30.05 in1017.6 mb 0.00 in0.0 mm 0.00 in0.0 mm 0.16 in4.1 mm
11:06 PM 40.5°F4.7°C 29.7°F-1.3°C 65% Calm Calm -- 30.05 in1017.6 mb 0.00 in0.0 mm 0.00 in0.0 mm 0.16 in4.1 mm
11:11 PM 40.2°F4.6°C 29.8°F-1.2°C 66% Calm Calm -- 30.05 in1017.6 mb 0.00 in0.0 mm 0.00 in0.0 mm 0.16 in4.1 mm
11:16 PM 40.1°F4.5°C 29.7°F-1.3°C 66% Calm Calm 3.0 mph4.8 kmh 30.05 in1017.6 mb 0.00 in0.0 mm 0.00 in0.0 mm 0.16 in4.1 mm
11:21 PM 40.0°F4.4°C 29.6°F-1.3°C 66% Calm Calm 2.0 mph3.2 kmh 30.05 in1017.6 mb 0.00 in0.0 mm 0.00 in0.0 mm 0.16 in4.1 mm
11:26 PM 39.8°F4.3°C 29.4°F-1.4°C 66% Calm Calm -- 30.05 in1017.6 mb 0.00 in0.0 mm 0.00 in0.0 mm 0.16 in4.1 mm
11:30 PM 39.7°F4.3°C 29.3°F-1.5°C 66% Calm Calm -- 30.05 in1017.6 mb 0.00 in0.0 mm 0.00 in0.0 mm 0.16 in4.1 mm
11:35 PM 39.6°F4.2°C 29.6°F-1.3°C 67% Calm Calm -- 30.05 in1017.6 mb 0.00 in0.0 mm 0.00 in0.0 mm 0.16 in4.1 mm
11:40 PM 39.4°F4.1°C 29.4°F-1.4°C 67% Calm Calm -- 30.06 in1017.9 mb 0.00 in0.0 mm 0.00 in0.0 mm 0.16 in4.1 mm
11:45 PM 39.2°F4.0°C 29.2°F-1.6°C 67% Calm Calm 2.0 mph3.2 kmh 30.06 in1017.9 mb 0.00 in0.0 mm 0.00 in0.0 mm 0.16 in4.1 mm
11:50 PM 39.1°F3.9°C 29.1°F-1.6°C 67% Calm Calm -- 30.06 in1017.9 mb 0.00 in0.0 mm 0.00 in0.0 mm 0.16 in4.1 mm
11:55 PM 39.1°F3.9°C 29.1°F-1.6°C 67% Calm Calm -- 30.06 in1017.9 mb 0.00 in0.0 mm 0.00 in0.0 mm 0.16 in4.1 mm